sensor_id;sensor_type;location;lat;lon;timestamp;P1;durP1;ratioP1;P2;durP2;ratioP2
40621;SDS011;26324;52.040;11.528;2024-01-15T00:01:44;5.30;;;2.33;;
40621;SDS011;26324;52.040;11.528;2024-01-15T00:04:12;6.40;;;3.10;;
40621;SDS011;26324;52.040;11.528;2024-01-15T00:06:40;3.65;;;2.25;;
40621;SDS011;26324;52.040;11.528;2024-01-15T00:09:08;1.23;;;0.52;;
40621;SDS011;26324;52.040;11.528;2024-01-15T00:11:35;5.95;;;1.85;;
40621;SDS011;26324;52.040;11.528;2024-01-15T00:14:03;6.20;;;3.70;;
40621;SDS011;26324;52.040;11.528;2024-01-15T00:16:31;2.75;;;1.65;;
40621;SDS011;26324;52.040;11.528;2024-01-15T00:18:58;3.85;;;1.83;;
40621;SDS011;26324;52.040;11.528;2024-01-15T00:21:26;4.55;;;1.83;;
40621;SDS011;26324;52.040;11.528;2024-01-15T00:23:57;8.45;;;2.58;;
40621;SDS011;26324;52.040;11.528;2024-01-15T00:26:24;6.82;;;2.25;;
40621;SDS011;26324;52.040;11.528;2024-01-15T00:28:52;5.15;;;2.05;;
40621;SDS011;26324;52.040;11.528;2024-01-15T00:31:19;7.03;;;2.83;;
40621;SDS011;26324;52.040;11.528;2024-01-15T00:33:47;2.95;;;1.60;;
40621;SDS011;26324;52.040;11.528;2024-01-15T00:36:15;5.35;;;1.50;;
40621;SDS011;26324;52.040;11.528;2024-01-15T00:38:44;2.78;;;1.50;;
40621;SDS011;26324;52.040;11.528;2024-01-15T00:41:11;4.32;;;1.80;;
40621;SDS011;26324;52.040;11.528;2024-01-15T00:43:39;3.58;;;2.58;;
40621;SDS011;26324;52.040;11.528;2024-01-15T00:46:07;2.63;;;1.42;;
40621;SDS011;26324;52.040;11.528;2024-01-15T00:48:35;2.97;;;1.50;;
40621;SDS011;26324;52.040;11.528;2024-01-15T00:51:03;6.63;;;2.03;;
40621;SDS011;26324;52.040;11.528;2024-01-15T00:53:31;3.70;;;2.28;;
40621;SDS011;26324;52.040;11.528;2024-01-15T00:55:59;3.83;;;2.13;;
40621;SDS011;26324;52.040;11.528;2024-01-15T00:58:27;1.52;;;1.10;;
40621;SDS011;26324;52.040;11.528;2024-01-15T01:00:55;6.22;;;2.40;;
40621;SDS011;26324;52.040;11.528;2024-01-15T01:03:23;4.18;;;1.58;;
40621;SDS011;26324;52.040;11.528;2024-01-15T01:05:50;3.53;;;1.65;;
40621;SDS011;26324;52.040;11.528;2024-01-15T01:08:18;4.30;;;2.17;;
40621;SDS011;26324;52.040;11.528;2024-01-15T01:10:46;2.63;;;1.23;;
40621;SDS011;26324;52.040;11.528;2024-01-15T01:13:14;3.45;;;1.88;;
40621;SDS011;26324;52.040;11.528;2024-01-15T01:15:41;3.70;;;1.75;;
40621;SDS011;26324;52.040;11.528;2024-01-15T01:18:09;5.35;;;2.20;;
40621;SDS011;26324;52.040;11.528;2024-01-15T01:20:37;5.30;;;1.58;;
40621;SDS011;26324;52.040;11.528;2024-01-15T01:23:05;3.92;;;1.67;;
40621;SDS011;26324;52.040;11.528;2024-01-15T01:25:32;8.98;;;2.78;;
40621;SDS011;26324;52.040;11.528;2024-01-15T01:28:00;4.80;;;2.45;;
40621;SDS011;26324;52.040;11.528;2024-01-15T01:30:28;5.43;;;2.38;;
40621;SDS011;26324;52.040;11.528;2024-01-15T01:32:56;1.73;;;1.23;;
40621;SDS011;26324;52.040;11.528;2024-01-15T01:35:23;3.10;;;1.95;;
40621;SDS011;26324;52.040;11.528;2024-01-15T01:37:51;3.83;;;1.83;;
40621;SDS011;26324;52.040;11.528;2024-01-15T01:40:19;5.60;;;2.67;;
40621;SDS011;26324;52.040;11.528;2024-01-15T01:42:47;5.93;;;2.33;;
40621;SDS011;26324;52.040;11.528;2024-01-15T01:45:15;3.72;;;1.75;;
40621;SDS011;26324;52.040;11.528;2024-01-15T01:47:43;5.90;;;2.17;;
40621;SDS011;26324;52.040;11.528;2024-01-15T01:50:10;2.38;;;1.77;;
40621;SDS011;26324;52.040;11.528;2024-01-15T01:52:38;4.40;;;2.15;;
40621;SDS011;26324;52.040;11.528;2024-01-15T01:55:07;3.42;;;1.88;;
40621;SDS011;26324;52.040;11.528;2024-01-15T02:00:04;4.70;;;2.35;;
40621;SDS011;26324;52.040;11.528;2024-01-15T02:02:39;6.28;;;2.78;;
40621;SDS011;26324;52.040;11.528;2024-01-15T02:05:07;2.58;;;1.17;;
40621;SDS011;26324;52.040;11.528;2024-01-15T02:07:36;5.63;;;1.85;;
40621;SDS011;26324;52.040;11.528;2024-01-15T02:10:03;4.32;;;2.22;;
40621;SDS011;26324;52.040;11.528;2024-01-15T02:12:32;2.00;;;1.25;;
40621;SDS011;26324;52.040;11.528;2024-01-15T02:15:00;2.85;;;1.67;;
40621;SDS011;26324;52.040;11.528;2024-01-15T02:17:28;2.60;;;1.25;;
40621;SDS011;26324;52.040;11.528;2024-01-15T02:19:56;4.32;;;2.00;;
40621;SDS011;26324;52.040;11.528;2024-01-15T02:22:23;1.92;;;1.17;;
40621;SDS011;26324;52.040;11.528;2024-01-15T02:24:51;4.43;;;2.03;;
40621;SDS011;26324;52.040;11.528;2024-01-15T02:27:19;1.25;;;0.90;;
40621;SDS011;26324;52.040;11.528;2024-01-15T02:29:47;3.58;;;1.77;;
40621;SDS011;26324;52.040;11.528;2024-01-15T02:32:15;4.07;;;1.85;;
40621;SDS011;26324;52.040;11.528;2024-01-15T02:34:43;5.20;;;2.70;;
40621;SDS011;26324;52.040;11.528;2024-01-15T02:37:10;4.00;;;1.48;;
40621;SDS011;26324;52.040;11.528;2024-01-15T02:39:38;2.45;;;1.08;;
40621;SDS011;26324;52.040;11.528;2024-01-15T02:42:06;1.77;;;1.10;;
40621;SDS011;26324;52.040;11.528;2024-01-15T02:44:33;3.33;;;1.05;;
40621;SDS011;26324;52.040;11.528;2024-01-15T02:47:01;4.10;;;2.00;;
40621;SDS011;26324;52.040;11.528;2024-01-15T02:49:29;4.60;;;1.55;;
40621;SDS011;26324;52.040;11.528;2024-01-15T02:51:58;3.50;;;1.60;;
40621;SDS011;26324;52.040;11.528;2024-01-15T02:54:26;5.05;;;2.00;;
40621;SDS011;26324;52.040;11.528;2024-01-15T02:56:53;2.42;;;1.52;;
40621;SDS011;26324;52.040;11.528;2024-01-15T02:59:21;3.10;;;1.55;;
40621;SDS011;26324;52.040;11.528;2024-01-15T03:01:49;3.53;;;0.73;;
40621;SDS011;26324;52.040;11.528;2024-01-15T03:04:16;7.03;;;2.47;;
40621;SDS011;26324;52.040;11.528;2024-01-15T03:06:44;2.03;;;1.40;;
40621;SDS011;26324;52.040;11.528;2024-01-15T03:09:12;1.55;;;0.93;;
40621;SDS011;26324;52.040;11.528;2024-01-15T03:11:40;3.33;;;1.75;;
40621;SDS011;26324;52.040;11.528;2024-01-15T03:14:08;4.05;;;1.55;;
40621;SDS011;26324;52.040;11.528;2024-01-15T03:16:35;2.65;;;1.23;;
40621;SDS011;26324;52.040;11.528;2024-01-15T03:19:03;2.88;;;0.70;;
40621;SDS011;26324;52.040;11.528;2024-01-15T03:21:31;4.47;;;1.30;;
40621;SDS011;26324;52.040;11.528;2024-01-15T03:23:59;2.35;;;1.50;;
40621;SDS011;26324;52.040;11.528;2024-01-15T03:26:26;1.83;;;0.35;;
40621;SDS011;26324;52.040;11.528;2024-01-15T03:28:54;2.67;;;1.02;;
40621;SDS011;26324;52.040;11.528;2024-01-15T03:31:21;2.90;;;0.60;;
40621;SDS011;26324;52.040;11.528;2024-01-15T03:33:49;1.08;;;0.40;;
40621;SDS011;26324;52.040;11.528;2024-01-15T03:36:17;2.15;;;0.73;;
40621;SDS011;26324;52.040;11.528;2024-01-15T03:38:45;4.05;;;0.90;;
40621;SDS011;26324;52.040;11.528;2024-01-15T03:41:13;2.08;;;0.50;;
40621;SDS011;26324;52.040;11.528;2024-01-15T03:43:41;2.03;;;0.50;;
40621;SDS011;26324;52.040;11.528;2024-01-15T03:46:09;2.70;;;0.93;;
40621;SDS011;26324;52.040;11.528;2024-01-15T03:48:36;2.63;;;0.60;;
40621;SDS011;26324;52.040;11.528;2024-01-15T03:51:04;0.40;;;0.20;;
40621;SDS011;26324;52.040;11.528;2024-01-15T03:53:32;2.47;;;1.02;;
40621;SDS011;26324;52.040;11.528;2024-01-15T03:55:59;1.27;;;0.90;;
40621;SDS011;26324;52.040;11.528;2024-01-15T03:58:27;1.20;;;0.50;;
40621;SDS011;26324;52.040;11.528;2024-01-15T04:00:55;2.88;;;0.70;;
40621;SDS011;26324;52.040;11.528;2024-01-15T04:03:23;1.52;;;0.73;;
40621;SDS011;26324;52.040;11.528;2024-01-15T04:05:51;2.05;;;0.32;;
40621;SDS011;26324;52.040;11.528;2024-01-15T04:08:18;1.45;;;0.90;;
40621;SDS011;26324;52.040;11.528;2024-01-15T04:10:46;1.52;;;0.32;;
40621;SDS011;26324;52.040;11.528;2024-01-15T04:13:14;2.80;;;1.63;;
40621;SDS011;26324;52.040;11.528;2024-01-15T04:15:41;2.03;;;1.00;;
40621;SDS011;26324;52.040;11.528;2024-01-15T04:18:09;2.72;;;0.68;;
40621;SDS011;26324;52.040;11.528;2024-01-15T04:20:37;5.97;;;1.13;;
40621;SDS011;26324;52.040;11.528;2024-01-15T04:23:05;8.15;;;0.95;;
40621;SDS011;26324;52.040;11.528;2024-01-15T04:25:32;0.30;;;0.20;;
40621;SDS011;26324;52.040;11.528;2024-01-15T04:28:00;4.03;;;0.88;;
40621;SDS011;26324;52.040;11.528;2024-01-15T04:30:28;0.98;;;0.93;;
40621;SDS011;26324;52.040;11.528;2024-01-15T04:32:56;0.77;;;0.35;;
40621;SDS011;26324;52.040;11.528;2024-01-15T04:35:23;1.02;;;0.73;;
40621;SDS011;26324;52.040;11.528;2024-01-15T04:37:51;4.68;;;0.82;;
40621;SDS011;26324;52.040;11.528;2024-01-15T04:40:19;1.38;;;0.30;;
40621;SDS011;26324;52.040;11.528;2024-01-15T04:42:47;1.90;;;0.75;;
40621;SDS011;26324;52.040;11.528;2024-01-15T04:45:14;1.38;;;0.60;;
40621;SDS011;26324;52.040;11.528;2024-01-15T04:47:42;5.57;;;0.90;;
40621;SDS011;26324;52.040;11.528;2024-01-15T04:50:10;2.38;;;0.77;;
40621;SDS011;26324;52.040;11.528;2024-01-15T04:52:37;1.00;;;0.63;;
40621;SDS011;26324;52.040;11.528;2024-01-15T04:55:05;2.78;;;0.65;;
40621;SDS011;26324;52.040;11.528;2024-01-15T04:57:33;3.03;;;0.75;;
40621;SDS011;26324;52.040;11.528;2024-01-15T05:00:00;4.53;;;0.55;;
40621;SDS011;26324;52.040;11.528;2024-01-15T05:02:29;2.65;;;0.88;;
40621;SDS011;26324;52.040;11.528;2024-01-15T05:04:56;2.25;;;0.90;;
40621;SDS011;26324;52.040;11.528;2024-01-15T05:07:24;5.50;;;0.88;;
40621;SDS011;26324;52.040;11.528;2024-01-15T05:09:52;0.47;;;0.25;;
40621;SDS011;26324;52.040;11.528;2024-01-15T05:12:19;4.43;;;0.65;;
40621;SDS011;26324;52.040;11.528;2024-01-15T05:14:47;0.52;;;0.30;;
40621;SDS011;26324;52.040;11.528;2024-01-15T05:17:15;1.08;;;0.60;;
40621;SDS011;26324;52.040;11.528;2024-01-15T05:19:42;3.05;;;0.88;;
40621;SDS011;26324;52.040;11.528;2024-01-15T05:22:10;0.20;;;0.20;;
40621;SDS011;26324;52.040;11.528;2024-01-15T05:24:38;1.38;;;0.70;;
40621;SDS011;26324;52.040;11.528;2024-01-15T05:27:06;3.40;;;0.65;;
40621;SDS011;26324;52.040;11.528;2024-01-15T05:29:33;0.65;;;0.40;;
40621;SDS011;26324;52.040;11.528;2024-01-15T05:32:01;2.67;;;0.52;;
40621;SDS011;26324;52.040;11.528;2024-01-15T05:34:29;3.10;;;0.77;;
40621;SDS011;26324;52.040;11.528;2024-01-15T05:36:56;0.65;;;0.38;;
40621;SDS011;26324;52.040;11.528;2024-01-15T05:39:24;1.98;;;0.60;;
40621;SDS011;26324;52.040;11.528;2024-01-15T05:41:51;2.67;;;0.60;;
40621;SDS011;26324;52.040;11.528;2024-01-15T05:44:19;0.95;;;0.35;;
40621;SDS011;26324;52.040;11.528;2024-01-15T05:46:47;3.80;;;0.77;;
40621;SDS011;26324;52.040;11.528;2024-01-15T05:49:14;3.35;;;0.40;;
40621;SDS011;26324;52.040;11.528;2024-01-15T05:51:42;0.63;;;0.60;;
40621;SDS011;26324;52.040;11.528;2024-01-15T05:54:10;2.80;;;0.75;;
40621;SDS011;26324;52.040;11.528;2024-01-15T05:56:37;2.13;;;0.82;;
40621;SDS011;26324;52.040;11.528;2024-01-15T05:59:05;1.50;;;0.82;;
40621;SDS011;26324;52.040;11.528;2024-01-15T06:01:32;4.78;;;0.63;;
40621;SDS011;26324;52.040;11.528;2024-01-15T06:04:00;1.23;;;0.85;;
40621;SDS011;26324;52.040;11.528;2024-01-15T06:06:28;4.28;;;0.52;;
40621;SDS011;26324;52.040;11.528;2024-01-15T06:08:56;1.15;;;0.50;;
40621;SDS011;26324;52.040;11.528;2024-01-15T06:11:29;0.47;;;0.20;;
40621;SDS011;26324;52.040;11.528;2024-01-15T06:13:57;4.07;;;1.10;;
40621;SDS011;26324;52.040;11.528;2024-01-15T06:16:24;1.13;;;0.47;;
40621;SDS011;26324;52.040;11.528;2024-01-15T06:18:52;2.95;;;0.52;;
40621;SDS011;26324;52.040;11.528;2024-01-15T06:21:20;4.45;;;0.98;;
40621;SDS011;26324;52.040;11.528;2024-01-15T06:23:48;4.28;;;0.50;;
40621;SDS011;26324;52.040;11.528;2024-01-15T06:26:15;3.10;;;0.85;;
40621;SDS011;26324;52.040;11.528;2024-01-15T06:28:42;1.45;;;0.75;;
40621;SDS011;26324;52.040;11.528;2024-01-15T06:31:10;1.33;;;0.45;;
40621;SDS011;26324;52.040;11.528;2024-01-15T06:33:38;0.85;;;0.47;;
40621;SDS011;26324;52.040;11.528;2024-01-15T06:36:06;2.45;;;0.60;;
40621;SDS011;26324;52.040;11.528;2024-01-15T06:38:34;0.77;;;0.32;;
40621;SDS011;26324;52.040;11.528;2024-01-15T06:41:02;3.38;;;0.65;;
40621;SDS011;26324;52.040;11.528;2024-01-15T06:43:29;3.03;;;1.00;;
40621;SDS011;26324;52.040;11.528;2024-01-15T06:45:57;4.05;;;0.70;;
40621;SDS011;26324;52.040;11.528;2024-01-15T06:48:27;2.30;;;0.47;;
40621;SDS011;26324;52.040;11.528;2024-01-15T06:50:55;8.15;;;0.90;;
40621;SDS011;26324;52.040;11.528;2024-01-15T06:53:23;3.10;;;0.85;;
40621;SDS011;26324;52.040;11.528;2024-01-15T06:55:50;5.57;;;0.95;;
40621;SDS011;26324;52.040;11.528;2024-01-15T06:58:18;2.58;;;0.95;;
40621;SDS011;26324;52.040;11.528;2024-01-15T07:00:46;1.75;;;0.20;;
40621;SDS011;26324;52.040;11.528;2024-01-15T07:03:13;6.50;;;1.20;;
40621;SDS011;26324;52.040;11.528;2024-01-15T07:05:41;0.68;;;0.65;;
40621;SDS011;26324;52.040;11.528;2024-01-15T07:08:09;7.53;;;0.82;;
40621;SDS011;26324;52.040;11.528;2024-01-15T07:10:37;2.63;;;1.00;;
40621;SDS011;26324;52.040;11.528;2024-01-15T07:13:05;0.63;;;0.30;;
40621;SDS011;26324;52.040;11.528;2024-01-15T07:15:32;1.75;;;0.68;;
40621;SDS011;26324;52.040;11.528;2024-01-15T07:18:00;1.27;;;0.88;;
40621;SDS011;26324;52.040;11.528;2024-01-15T07:20:28;2.08;;;0.60;;
40621;SDS011;26324;52.040;11.528;2024-01-15T07:22:56;1.30;;;0.50;;
40621;SDS011;26324;52.040;11.528;2024-01-15T07:25:24;2.38;;;0.90;;
40621;SDS011;26324;52.040;11.528;2024-01-15T07:27:53;1.45;;;0.95;;
40621;SDS011;26324;52.040;11.528;2024-01-15T07:30:21;1.40;;;0.57;;
40621;SDS011;26324;52.040;11.528;2024-01-15T07:32:49;1.52;;;0.50;;
40621;SDS011;26324;52.040;11.528;2024-01-15T07:35:17;1.08;;;0.20;;
40621;SDS011;26324;52.040;11.528;2024-01-15T07:37:44;2.00;;;0.43;;
40621;SDS011;26324;52.040;11.528;2024-01-15T07:40:12;0.77;;;0.47;;
40621;SDS011;26324;52.040;11.528;2024-01-15T07:42:40;1.13;;;0.30;;
40621;SDS011;26324;52.040;11.528;2024-01-15T07:45:10;1.48;;;0.80;;
40621;SDS011;26324;52.040;11.528;2024-01-15T07:47:38;0.75;;;0.17;;
40621;SDS011;26324;52.040;11.528;2024-01-15T07:50:05;1.70;;;0.68;;
40621;SDS011;26324;52.040;11.528;2024-01-15T07:52:33;2.83;;;0.88;;
40621;SDS011;26324;52.040;11.528;2024-01-15T07:55:01;0.73;;;0.68;;
40621;SDS011;26324;52.040;11.528;2024-01-15T07:57:31;0.75;;;0.20;;
40621;SDS011;26324;52.040;11.528;2024-01-15T07:59:59;1.85;;;0.77;;
40621;SDS011;26324;52.040;11.528;2024-01-15T08:02:26;0.77;;;0.63;;
40621;SDS011;26324;52.040;11.528;2024-01-15T08:04:54;3.80;;;0.63;;
40621;SDS011;26324;52.040;11.528;2024-01-15T08:07:22;1.27;;;0.70;;
40621;SDS011;26324;52.040;11.528;2024-01-15T08:09:50;0.73;;;0.35;;
40621;SDS011;26324;52.040;11.528;2024-01-15T08:12:17;1.25;;;0.68;;
40621;SDS011;26324;52.040;11.528;2024-01-15T08:14:45;0.70;;;0.55;;
40621;SDS011;26324;52.040;11.528;2024-01-15T08:17:13;1.80;;;0.45;;
40621;SDS011;26324;52.040;11.528;2024-01-15T08:19:41;0.80;;;0.30;;
40621;SDS011;26324;52.040;11.528;2024-01-15T08:22:09;6.65;;;1.27;;
40621;SDS011;26324;52.040;11.528;2024-01-15T08:24:37;1.50;;;0.90;;
40621;SDS011;26324;52.040;11.528;2024-01-15T08:27:04;5.72;;;1.02;;
40621;SDS011;26324;52.040;11.528;2024-01-15T08:29:32;0.32;;;0.30;;
40621;SDS011;26324;52.040;11.528;2024-01-15T08:32:01;1.42;;;1.15;;
40621;SDS011;26324;52.040;11.528;2024-01-15T08:34:29;1.10;;;0.47;;
40621;SDS011;26324;52.040;11.528;2024-01-15T08:36:58;2.50;;;0.95;;
40621;SDS011;26324;52.040;11.528;2024-01-15T08:39:26;2.45;;;0.88;;
40621;SDS011;26324;52.040;11.528;2024-01-15T08:41:53;0.80;;;0.68;;
40621;SDS011;26324;52.040;11.528;2024-01-15T08:44:21;2.15;;;0.90;;
40621;SDS011;26324;52.040;11.528;2024-01-15T08:46:49;2.50;;;1.42;;
40621;SDS011;26324;52.040;11.528;2024-01-15T08:49:16;5.20;;;1.55;;
40621;SDS011;26324;52.040;11.528;2024-01-15T08:51:44;2.05;;;1.05;;
40621;SDS011;26324;52.040;11.528;2024-01-15T08:54:12;1.15;;;0.35;;
40621;SDS011;26324;52.040;11.528;2024-01-15T08:56:40;5.57;;;0.95;;
40621;SDS011;26324;52.040;11.528;2024-01-15T08:59:07;3.03;;;0.63;;
40621;SDS011;26324;52.040;11.528;2024-01-15T09:01:35;2.33;;;0.32;;
40621;SDS011;26324;52.040;11.528;2024-01-15T09:04:03;4.85;;;1.27;;
40621;SDS011;26324;52.040;11.528;2024-01-15T09:06:31;0.88;;;0.22;;
40621;SDS011;26324;52.040;11.528;2024-01-15T09:08:59;1.63;;;0.73;;
40621;SDS011;26324;52.040;11.528;2024-01-15T09:11:27;1.75;;;0.55;;
40621;SDS011;26324;52.040;11.528;2024-01-15T09:13:55;6.63;;;1.35;;
40621;SDS011;26324;52.040;11.528;2024-01-15T09:16:23;1.85;;;0.93;;
40621;SDS011;26324;52.040;11.528;2024-01-15T09:18:51;2.53;;;1.00;;
40621;SDS011;26324;52.040;11.528;2024-01-15T09:21:18;2.65;;;0.93;;
40621;SDS011;26324;52.040;11.528;2024-01-15T09:23:46;0.70;;;0.25;;
40621;SDS011;26324;52.040;11.528;2024-01-15T09:26:14;1.58;;;1.05;;
40621;SDS011;26324;52.040;11.528;2024-01-15T09:28:41;1.42;;;0.55;;
40621;SDS011;26324;52.040;11.528;2024-01-15T09:31:09;3.35;;;1.42;;
40621;SDS011;26324;52.040;11.528;2024-01-15T09:33:37;1.42;;;0.77;;
40621;SDS011;26324;52.040;11.528;2024-01-15T09:36:05;2.60;;;1.00;;
40621;SDS011;26324;52.040;11.528;2024-01-15T09:38:33;2.22;;;0.70;;
40621;SDS011;26324;52.040;11.528;2024-01-15T09:41:01;1.30;;;0.88;;
40621;SDS011;26324;52.040;11.528;2024-01-15T09:43:29;1.08;;;0.40;;
40621;SDS011;26324;52.040;11.528;2024-01-15T09:45:57;1.13;;;0.82;;
40621;SDS011;26324;52.040;11.528;2024-01-15T09:48:25;2.20;;;0.73;;
40621;SDS011;26324;52.040;11.528;2024-01-15T09:50:53;0.47;;;0.35;;
40621;SDS011;26324;52.040;11.528;2024-01-15T09:53:21;3.13;;;1.33;;
40621;SDS011;26324;52.040;11.528;2024-01-15T09:55:49;0.93;;;0.68;;
40621;SDS011;26324;52.040;11.528;2024-01-15T09:58:17;1.33;;;0.60;;
40621;SDS011;26324;52.040;11.528;2024-01-15T10:00:46;2.83;;;0.95;;
40621;SDS011;26324;52.040;11.528;2024-01-15T10:03:16;1.40;;;0.60;;
40621;SDS011;26324;52.040;11.528;2024-01-15T10:05:44;2.65;;;0.43;;
40621;SDS011;26324;52.040;11.528;2024-01-15T10:08:12;1.77;;;0.98;;
40621;SDS011;26324;52.040;11.528;2024-01-15T10:10:41;2.35;;;0.75;;
40621;SDS011;26324;52.040;11.528;2024-01-15T10:13:10;1.40;;;0.73;;
40621;SDS011;26324;52.040;11.528;2024-01-15T10:15:39;1.98;;;1.10;;
40621;SDS011;26324;52.040;11.528;2024-01-15T10:18:06;0.25;;;0.20;;
40621;SDS011;26324;52.040;11.528;2024-01-15T10:20:34;2.15;;;0.80;;
40621;SDS011;26324;52.040;11.528;2024-01-15T10:23:02;1.25;;;0.52;;
40621;SDS011;26324;52.040;11.528;2024-01-15T10:25:31;0.77;;;0.30;;
40621;SDS011;26324;52.040;11.528;2024-01-15T10:27:59;1.08;;;0.40;;
40621;SDS011;26324;52.040;11.528;2024-01-15T10:30:28;3.50;;;1.05;;
40621;SDS011;26324;52.040;11.528;2024-01-15T10:33:02;1.55;;;0.90;;
40621;SDS011;26324;52.040;11.528;2024-01-15T10:35:31;3.03;;;1.00;;
40621;SDS011;26324;52.040;11.528;2024-01-15T10:38:00;2.05;;;0.65;;
40621;SDS011;26324;52.040;11.528;2024-01-15T10:40:28;1.23;;;0.30;;
40621;SDS011;26324;52.040;11.528;2024-01-15T10:42:56;0.52;;;0.20;;
40621;SDS011;26324;52.040;11.528;2024-01-15T10:45:24;2.70;;;0.50;;
40621;SDS011;26324;52.040;11.528;2024-01-15T10:47:52;0.47;;;0.47;;
40621;SDS011;26324;52.040;11.528;2024-01-15T10:50:21;0.73;;;0.35;;
40621;SDS011;26324;52.040;11.528;2024-01-15T10:52:49;1.23;;;0.50;;
40621;SDS011;26324;52.040;11.528;2024-01-15T10:55:16;1.38;;;0.65;;
40621;SDS011;26324;52.040;11.528;2024-01-15T10:57:46;0.38;;;0.28;;
40621;SDS011;26324;52.040;11.528;2024-01-15T11:00:16;1.73;;;0.43;;
40621;SDS011;26324;52.040;11.528;2024-01-15T11:02:45;0.30;;;0.30;;
40621;SDS011;26324;52.040;11.528;2024-01-15T11:05:12;1.25;;;0.52;;
40621;SDS011;26324;52.040;11.528;2024-01-15T11:07:40;0.90;;;0.50;;
40621;SDS011;26324;52.040;11.528;2024-01-15T11:10:14;1.95;;;0.75;;
40621;SDS011;26324;52.040;11.528;2024-01-15T11:12:56;0.80;;;0.40;;
40621;SDS011;26324;52.040;11.528;2024-01-15T11:15:24;2.92;;;0.63;;
40621;SDS011;26324;52.040;11.528;2024-01-15T11:17:59;2.08;;;0.70;;
40621;SDS011;26324;52.040;11.528;2024-01-15T11:20:28;2.15;;;0.70;;
40621;SDS011;26324;52.040;11.528;2024-01-15T11:22:56;2.42;;;0.82;;
40621;SDS011;26324;52.040;11.528;2024-01-15T11:25:34;1.33;;;0.20;;
40621;SDS011;26324;52.040;11.528;2024-01-15T11:28:06;3.60;;;0.65;;
40621;SDS011;26324;52.040;11.528;2024-01-15T11:30:34;1.00;;;0.35;;
40621;SDS011;26324;52.040;11.528;2024-01-15T11:33:03;1.65;;;0.70;;
40621;SDS011;26324;52.040;11.528;2024-01-15T11:35:49;0.47;;;0.30;;
40621;SDS011;26324;52.040;11.528;2024-01-15T11:38:27;1.70;;;0.55;;
40621;SDS011;26324;52.040;11.528;2024-01-15T11:40:56;1.23;;;0.20;;
40621;SDS011;26324;52.040;11.528;2024-01-15T11:43:26;1.73;;;0.77;;
40621;SDS011;26324;52.040;11.528;2024-01-15T11:45:58;2.28;;;0.45;;
40621;SDS011;26324;52.040;11.528;2024-01-15T11:48:32;0.75;;;0.28;;
40621;SDS011;26324;52.040;11.528;2024-01-15T11:51:04;3.40;;;0.63;;
40621;SDS011;26324;52.040;11.528;2024-01-15T11:53:32;1.08;;;0.40;;
40621;SDS011;26324;52.040;11.528;2024-01-15T11:56:02;1.17;;;0.55;;
40621;SDS011;26324;52.040;11.528;2024-01-15T11:58:30;0.28;;;0.20;;
40621;SDS011;26324;52.040;11.528;2024-01-15T12:00:58;2.42;;;0.70;;
40621;SDS011;26324;52.040;11.528;2024-01-15T12:03:26;1.05;;;0.40;;
40621;SDS011;26324;52.040;11.528;2024-01-15T12:05:54;0.93;;;0.50;;
40621;SDS011;26324;52.040;11.528;2024-01-15T12:08:23;1.15;;;0.50;;
40621;SDS011;26324;52.040;11.528;2024-01-15T12:10:51;0.98;;;0.50;;
40621;SDS011;26324;52.040;11.528;2024-01-15T12:13:19;1.15;;;0.25;;
40621;SDS011;26324;52.040;11.528;2024-01-15T12:15:47;0.52;;;0.32;;
40621;SDS011;26324;52.040;11.528;2024-01-15T12:18:16;0.75;;;0.32;;
40621;SDS011;26324;52.040;11.528;2024-01-15T12:20:45;2.80;;;1.00;;
40621;SDS011;26324;52.040;11.528;2024-01-15T12:23:14;1.55;;;0.60;;
40621;SDS011;26324;52.040;11.528;2024-01-15T12:25:43;2.08;;;0.77;;
40621;SDS011;26324;52.040;11.528;2024-01-15T12:28:11;2.70;;;0.65;;
40621;SDS011;26324;52.040;11.528;2024-01-15T12:30:39;1.75;;;1.00;;
40621;SDS011;26324;52.040;11.528;2024-01-15T12:33:07;0.70;;;0.47;;
40621;SDS011;26324;52.040;11.528;2024-01-15T12:35:36;1.60;;;0.80;;
40621;SDS011;26324;52.040;11.528;2024-01-15T12:38:04;1.30;;;0.43;;
40621;SDS011;26324;52.040;11.528;2024-01-15T12:40:33;0.90;;;0.50;;
40621;SDS011;26324;52.040;11.528;2024-01-15T12:43:03;2.60;;;0.52;;
40621;SDS011;26324;52.040;11.528;2024-01-15T12:45:33;1.40;;;0.50;;
40621;SDS011;26324;52.040;11.528;2024-01-15T12:48:03;1.35;;;0.35;;
40621;SDS011;26324;52.040;11.528;2024-01-15T12:50:33;0.32;;;0.22;;
40621;SDS011;26324;52.040;11.528;2024-01-15T12:53:02;0.50;;;0.30;;
40621;SDS011;26324;52.040;11.528;2024-01-15T12:55:30;2.20;;;1.15;;
40621;SDS011;26324;52.040;11.528;2024-01-15T12:57:57;0.95;;;0.30;;
40621;SDS011;26324;52.040;11.528;2024-01-15T13:00:25;0.30;;;0.30;;
40621;SDS011;26324;52.040;11.528;2024-01-15T13:02:53;0.13;;;0.13;;
40621;SDS011;26324;52.040;11.528;2024-01-15T13:07:51;1.58;;;0.28;;
40621;SDS011;26324;52.040;11.528;2024-01-15T13:10:19;1.00;;;0.52;;
40621;SDS011;26324;52.040;11.528;2024-01-15T13:12:49;0.15;;;0.00;;
40621;SDS011;26324;52.040;11.528;2024-01-15T13:15:17;0.00;;;0.00;;
40621;SDS011;26324;52.040;11.528;2024-01-15T13:17:45;1.33;;;0.38;;
40621;SDS011;26324;52.040;11.528;2024-01-15T13:20:13;0.20;;;0.10;;
40621;SDS011;26324;52.040;11.528;2024-01-15T13:22:41;0.17;;;0.10;;
40621;SDS011;26324;52.040;11.528;2024-01-15T13:25:11;1.60;;;0.17;;
40621;SDS011;26324;52.040;11.528;2024-01-15T13:27:39;0.10;;;0.10;;
40621;SDS011;26324;52.040;11.528;2024-01-15T13:32:37;2.08;;;0.25;;
40621;SDS011;26324;52.040;11.528;2024-01-15T13:35:05;1.05;;;0.30;;
40621;SDS011;26324;52.040;11.528;2024-01-15T13:37:36;2.00;;;0.38;;
40621;SDS011;26324;52.040;11.528;2024-01-15T13:40:05;0.32;;;0.10;;
40621;SDS011;26324;52.040;11.528;2024-01-15T13:42:35;2.22;;;0.88;;
40621;SDS011;26324;52.040;11.528;2024-01-15T13:45:05;0.30;;;0.10;;
40621;SDS011;26324;52.040;11.528;2024-01-15T13:47:34;6.50;;;0.85;;
40621;SDS011;26324;52.040;11.528;2024-01-15T13:50:02;1.10;;;0.57;;
40621;SDS011;26324;52.040;11.528;2024-01-15T13:52:30;0.73;;;0.30;;
40621;SDS011;26324;52.040;11.528;2024-01-15T13:54:58;0.55;;;0.30;;
40621;SDS011;26324;52.040;11.528;2024-01-15T13:57:25;1.00;;;0.20;;
40621;SDS011;26324;52.040;11.528;2024-01-15T13:59:53;0.10;;;0.10;;
40621;SDS011;26324;52.040;11.528;2024-01-15T14:02:21;0.38;;;0.20;;
40621;SDS011;26324;52.040;11.528;2024-01-15T14:04:51;0.50;;;0.17;;
40621;SDS011;26324;52.040;11.528;2024-01-15T14:07:19;0.52;;;0.43;;
40621;SDS011;26324;52.040;11.528;2024-01-15T14:09:46;1.50;;;0.50;;
40621;SDS011;26324;52.040;11.528;2024-01-15T14:12:14;1.05;;;0.38;;
40621;SDS011;26324;52.040;11.528;2024-01-15T14:14:42;1.83;;;0.15;;
40621;SDS011;26324;52.040;11.528;2024-01-15T14:17:10;0.35;;;0.28;;
40621;SDS011;26324;52.040;11.528;2024-01-15T14:19:37;1.98;;;0.73;;
40621;SDS011;26324;52.040;11.528;2024-01-15T14:22:05;0.95;;;0.95;;
40621;SDS011;26324;52.040;11.528;2024-01-15T14:24:33;0.17;;;0.03;;
40621;SDS011;26324;52.040;11.528;2024-01-15T14:27:01;0.40;;;0.20;;
40621;SDS011;26324;52.040;11.528;2024-01-15T14:29:28;1.38;;;0.30;;
40621;SDS011;26324;52.040;11.528;2024-01-15T14:31:56;2.35;;;0.38;;
40621;SDS011;26324;52.040;11.528;2024-01-15T14:34:24;0.80;;;0.40;;
40621;SDS011;26324;52.040;11.528;2024-01-15T14:36:53;2.78;;;0.40;;
40621;SDS011;26324;52.040;11.528;2024-01-15T14:39:22;1.85;;;0.80;;
40621;SDS011;26324;52.040;11.528;2024-01-15T14:41:49;0.57;;;0.20;;
40621;SDS011;26324;52.040;11.528;2024-01-15T14:44:18;1.35;;;0.28;;
40621;SDS011;26324;52.040;11.528;2024-01-15T14:46:45;0.93;;;0.20;;